sensor_id;sensor_type;location;lat;lon;timestamp;temperature;humidity
35043;DHT22;21230;51.170;17.024;2022-10-26T00:01:26;8.40;99.90
35043;DHT22;21230;51.170;17.024;2022-10-26T00:03:53;8.40;99.90
35043;DHT22;21230;51.170;17.024;2022-10-26T00:06:20;8.30;99.90
35043;DHT22;21230;51.170;17.024;2022-10-26T00:08:46;8.20;99.90
35043;DHT22;21230;51.170;17.024;2022-10-26T00:11:13;8.10;99.90
35043;DHT22;21230;51.170;17.024;2022-10-26T00:13:41;7.90;99.90
35043;DHT22;21230;51.170;17.024;2022-10-26T00:16:11;7.90;99.90
35043;DHT22;21230;51.170;17.024;2022-10-26T00:18:37;7.80;99.90
35043;DHT22;21230;51.170;17.024;2022-10-26T00:21:06;7.80;99.90
35043;DHT22;21230;51.170;17.024;2022-10-26T00:23:32;7.70;99.90
35043;DHT22;21230;51.170;17.024;2022-10-26T00:25:58;7.70;99.90
35043;DHT22;21230;51.170;17.024;2022-10-26T00:28:24;7.70;99.90
35043;DHT22;21230;51.170;17.024;2022-10-26T00:30:49;7.70;99.90
35043;DHT22;21230;51.170;17.024;2022-10-26T00:33:18;7.70;99.90
35043;DHT22;21230;51.170;17.024;2022-10-26T00:35:46;7.80;99.90
35043;DHT22;21230;51.170;17.024;2022-10-26T00:38:12;7.80;99.90
35043;DHT22;21230;51.170;17.024;2022-10-26T00:40:37;7.80;99.90
35043;DHT22;21230;51.170;17.024;2022-10-26T00:43:05;7.90;99.90
35043;DHT22;21230;51.170;17.024;2022-10-26T00:45:30;7.90;99.90
35043;DHT22;21230;51.170;17.024;2022-10-26T00:48:00;7.90;99.90
35043;DHT22;21230;51.170;17.024;2022-10-26T00:52:52;7.80;99.90
35043;DHT22;21230;51.170;17.024;2022-10-26T00:55:20;7.80;99.90
35043;DHT22;21230;51.170;17.024;2022-10-26T00:57:47;7.80;99.90
35043;DHT22;21230;51.170;17.024;2022-10-26T01:00:18;7.80;99.90
35043;DHT22;21230;51.170;17.024;2022-10-26T01:02:47;7.70;99.90
35043;DHT22;21230;51.170;17.024;2022-10-26T01:05:13;7.70;99.90
35043;DHT22;21230;51.170;17.024;2022-10-26T01:07:40;7.60;99.90
35043;DHT22;21230;51.170;17.024;2022-10-26T01:10:07;7.60;99.90
35043;DHT22;21230;51.170;17.024;2022-10-26T01:12:35;7.60;99.90
35043;DHT22;21230;51.170;17.024;2022-10-26T01:15:01;7.50;99.90
35043;DHT22;21230;51.170;17.024;2022-10-26T01:17:31;7.50;99.90
35043;DHT22;21230;51.170;17.024;2022-10-26T01:25:12;7.30;99.90
35043;DHT22;21230;51.170;17.024;2022-10-26T01:27:44;7.30;99.90
35043;DHT22;21230;51.170;17.024;2022-10-26T01:30:18;7.40;99.90
35043;DHT22;21230;51.170;17.024;2022-10-26T01:33:00;7.50;99.90
35043;DHT22;21230;51.170;17.024;2022-10-26T01:35:30;7.50;99.90
35043;DHT22;21230;51.170;17.024;2022-10-26T01:38:03;7.50;99.90
35043;DHT22;21230;51.170;17.024;2022-10-26T01:40:35;7.50;99.90
35043;DHT22;21230;51.170;17.024;2022-10-26T01:43:04;7.50;99.90
35043;DHT22;21230;51.170;17.024;2022-10-26T01:45:32;7.60;99.90
35043;DHT22;21230;51.170;17.024;2022-10-26T01:47:58;7.60;99.90
35043;DHT22;21230;51.170;17.024;2022-10-26T01:50:29;7.50;99.90
35043;DHT22;21230;51.170;17.024;2022-10-26T01:52:55;7.50;99.90
35043;DHT22;21230;51.170;17.024;2022-10-26T01:58:40;7.40;99.90
35043;DHT22;21230;51.170;17.024;2022-10-26T02:03:32;7.40;99.90
35043;DHT22;21230;51.170;17.024;2022-10-26T02:06:35;7.30;99.90
35043;DHT22;21230;51.170;17.024;2022-10-26T02:08:57;7.30;99.90
35043;DHT22;21230;51.170;17.024;2022-10-26T02:11:38;7.30;99.90
35043;DHT22;21230;51.170;17.024;2022-10-26T02:16:35;7.40;99.90
35043;DHT22;21230;51.170;17.024;2022-10-26T02:21:35;7.30;99.90
35043;DHT22;21230;51.170;17.024;2022-10-26T02:24:01;7.30;99.90
35043;DHT22;21230;51.170;17.024;2022-10-26T02:26:27;7.20;99.90
35043;DHT22;21230;51.170;17.024;2022-10-26T02:28:54;7.20;99.90
35043;DHT22;21230;51.170;17.024;2022-10-26T02:31:22;7.20;99.90
35043;DHT22;21230;51.170;17.024;2022-10-26T02:33:48;7.20;99.90
35043;DHT22;21230;51.170;17.024;2022-10-26T02:36:24;7.20;99.90
35043;DHT22;21230;51.170;17.024;2022-10-26T02:38:54;7.20;99.90
35043;DHT22;21230;51.170;17.024;2022-10-26T02:41:21;7.10;99.90
35043;DHT22;21230;51.170;17.024;2022-10-26T02:43:52;7.10;99.90
35043;DHT22;21230;51.170;17.024;2022-10-26T02:46:19;7.10;99.90
35043;DHT22;21230;51.170;17.024;2022-10-26T02:48:46;7.10;99.90
35043;DHT22;21230;51.170;17.024;2022-10-26T02:51:24;7.10;99.90
35043;DHT22;21230;51.170;17.024;2022-10-26T02:56:20;7.00;99.90
35043;DHT22;21230;51.170;17.024;2022-10-26T02:58:48;7.00;99.90
35043;DHT22;21230;51.170;17.024;2022-10-26T03:01:15;7.00;99.90
35043;DHT22;21230;51.170;17.024;2022-10-26T03:03:40;7.00;99.90
35043;DHT22;21230;51.170;17.024;2022-10-26T03:06:06;6.90;99.90
35043;DHT22;21230;51.170;17.024;2022-10-26T03:08:32;6.80;99.90
35043;DHT22;21230;51.170;17.024;2022-10-26T03:10:57;6.80;99.90
35043;DHT22;21230;51.170;17.024;2022-10-26T03:13:23;6.90;99.90
35043;DHT22;21230;51.170;17.024;2022-10-26T03:15:49;6.80;99.90
35043;DHT22;21230;51.170;17.024;2022-10-26T03:18:14;6.90;99.90
35043;DHT22;21230;51.170;17.024;2022-10-26T03:20:42;6.90;99.90
35043;DHT22;21230;51.170;17.024;2022-10-26T03:23:08;6.80;99.90
35043;DHT22;21230;51.170;17.024;2022-10-26T03:25:34;6.80;99.90
35043;DHT22;21230;51.170;17.024;2022-10-26T03:28:01;6.70;99.90
35043;DHT22;21230;51.170;17.024;2022-10-26T03:30:27;6.60;99.90
35043;DHT22;21230;51.170;17.024;2022-10-26T03:32:53;6.50;99.90
35043;DHT22;21230;51.170;17.024;2022-10-26T03:35:19;6.40;99.90
35043;DHT22;21230;51.170;17.024;2022-10-26T03:37:45;6.40;99.90
35043;DHT22;21230;51.170;17.024;2022-10-26T03:40:10;6.40;99.90
35043;DHT22;21230;51.170;17.024;2022-10-26T03:42:36;6.40;99.90
35043;DHT22;21230;51.170;17.024;2022-10-26T03:45:08;6.40;99.90
35043;DHT22;21230;51.170;17.024;2022-10-26T03:50:25;6.40;99.90
35043;DHT22;21230;51.170;17.024;2022-10-26T03:52:50;6.30;99.90
35043;DHT22;21230;51.170;17.024;2022-10-26T03:55:16;6.30;99.90
35043;DHT22;21230;51.170;17.024;2022-10-26T03:57:44;6.30;99.90
35043;DHT22;21230;51.170;17.024;2022-10-26T04:00:14;6.20;99.90
35043;DHT22;21230;51.170;17.024;2022-10-26T04:02:43;6.20;99.90
35043;DHT22;21230;51.170;17.024;2022-10-26T04:05:12;6.20;99.90
35043;DHT22;21230;51.170;17.024;2022-10-26T04:07:38;6.20;99.90
35043;DHT22;21230;51.170;17.024;2022-10-26T04:10:04;6.20;99.90
35043;DHT22;21230;51.170;17.024;2022-10-26T04:12:30;6.20;99.90
35043;DHT22;21230;51.170;17.024;2022-10-26T04:14:55;6.20;99.90
35043;DHT22;21230;51.170;17.024;2022-10-26T04:17:24;6.10;99.90
35043;DHT22;21230;51.170;17.024;2022-10-26T04:19:50;6.10;99.90
35043;DHT22;21230;51.170;17.024;2022-10-26T04:22:15;6.00;99.90
35043;DHT22;21230;51.170;17.024;2022-10-26T04:24:43;6.10;99.90
35043;DHT22;21230;51.170;17.024;2022-10-26T04:27:15;6.10;99.90
35043;DHT22;21230;51.170;17.024;2022-10-26T04:29:45;6.10;99.90
35043;DHT22;21230;51.170;17.024;2022-10-26T04:32:21;6.10;99.90
35043;DHT22;21230;51.170;17.024;2022-10-26T04:34:53;6.10;99.90
35043;DHT22;21230;51.170;17.024;2022-10-26T04:37:21;6.10;99.90
35043;DHT22;21230;51.170;17.024;2022-10-26T04:39:53;6.10;99.90
35043;DHT22;21230;51.170;17.024;2022-10-26T04:42:28;6.10;99.90
35043;DHT22;21230;51.170;17.024;2022-10-26T04:45:08;6.10;99.90
35043;DHT22;21230;51.170;17.024;2022-10-26T04:47:38;6.10;99.90
35043;DHT22;21230;51.170;17.024;2022-10-26T04:50:04;6.10;99.90
35043;DHT22;21230;51.170;17.024;2022-10-26T04:52:30;6.00;99.90
35043;DHT22;21230;51.170;17.024;2022-10-26T04:54:56;6.10;99.90
35043;DHT22;21230;51.170;17.024;2022-10-26T04:57:21;6.10;99.90
35043;DHT22;21230;51.170;17.024;2022-10-26T04:59:47;6.00;99.90
35043;DHT22;21230;51.170;17.024;2022-10-26T05:02:13;6.00;99.90
35043;DHT22;21230;51.170;17.024;2022-10-26T05:04:49;6.00;99.90
35043;DHT22;21230;51.170;17.024;2022-10-26T05:07:17;6.00;99.90
35043;DHT22;21230;51.170;17.024;2022-10-26T05:09:48;6.00;99.90
35043;DHT22;21230;51.170;17.024;2022-10-26T05:15:03;6.00;99.90
35043;DHT22;21230;51.170;17.024;2022-10-26T05:17:39;6.10;99.90
35043;DHT22;21230;51.170;17.024;2022-10-26T05:20:11;6.10;99.90
35043;DHT22;21230;51.170;17.024;2022-10-26T05:22:38;6.20;99.90
35043;DHT22;21230;51.170;17.024;2022-10-26T05:25:21;6.10;99.90
35043;DHT22;21230;51.170;17.024;2022-10-26T05:33:12;6.00;99.90
35043;DHT22;21230;51.170;17.024;2022-10-26T05:35:38;5.90;99.90
35043;DHT22;21230;51.170;17.024;2022-10-26T06:11:02;6.30;99.90
35043;DHT22;21230;51.170;17.024;2022-10-26T06:13:40;6.40;99.90
35043;DHT22;21230;51.170;17.024;2022-10-26T06:24:22;6.40;99.90
35043;DHT22;21230;51.170;17.024;2022-10-26T06:26:57;6.50;99.90
35043;DHT22;21230;51.170;17.024;2022-10-26T06:30:27;6.50;99.90
35043;DHT22;21230;51.170;17.024;2022-10-26T06:32:42;6.70;99.90
35043;DHT22;21230;51.170;17.024;2022-10-26T06:37:48;6.90;99.90
35043;DHT22;21230;51.170;17.024;2022-10-26T06:40:41;7.10;99.90
35043;DHT22;21230;51.170;17.024;2022-10-26T06:43:19;7.20;99.90
35043;DHT22;21230;51.170;17.024;2022-10-26T07:07:25;8.20;99.90
35043;DHT22;21230;51.170;17.024;2022-10-26T07:10:13;8.20;99.90
35043;DHT22;21230;51.170;17.024;2022-10-26T07:12:54;8.40;99.90
35043;DHT22;21230;51.170;17.024;2022-10-26T07:25:06;8.80;99.90
35043;DHT22;21230;51.170;17.024;2022-10-26T07:28:00;8.90;99.90
35043;DHT22;21230;51.170;17.024;2022-10-26T07:30:27;9.00;99.90
35043;DHT22;21230;51.170;17.024;2022-10-26T07:33:06;9.20;99.90
35043;DHT22;21230;51.170;17.024;2022-10-26T07:35:33;9.20;99.90
35043;DHT22;21230;51.170;17.024;2022-10-26T07:38:00;9.30;99.90
35043;DHT22;21230;51.170;17.024;2022-10-26T07:40:27;9.40;99.90
35043;DHT22;21230;51.170;17.024;2022-10-26T07:42:57;9.50;99.90
35043;DHT22;21230;51.170;17.024;2022-10-26T07:45:23;9.60;99.90
35043;DHT22;21230;51.170;17.024;2022-10-26T07:47:50;9.70;99.90
35043;DHT22;21230;51.170;17.024;2022-10-26T07:50:16;9.80;99.90
35043;DHT22;21230;51.170;17.024;2022-10-26T07:52:42;9.90;99.90
35043;DHT22;21230;51.170;17.024;2022-10-26T07:55:09;10.00;99.90
35043;DHT22;21230;51.170;17.024;2022-10-26T07:57:36;10.10;99.90
35043;DHT22;21230;51.170;17.024;2022-10-26T08:00:03;10.20;99.90
35043;DHT22;21230;51.170;17.024;2022-10-26T08:02:53;10.40;99.90
35043;DHT22;21230;51.170;17.024;2022-10-26T08:05:22;10.50;99.90
35043;DHT22;21230;51.170;17.024;2022-10-26T08:07:53;10.60;99.90
35043;DHT22;21230;51.170;17.024;2022-10-26T08:10:21;10.70;99.90
35043;DHT22;21230;51.170;17.024;2022-10-26T08:12:54;10.80;99.90
35043;DHT22;21230;51.170;17.024;2022-10-26T08:15:29;10.90;99.90
35043;DHT22;21230;51.170;17.024;2022-10-26T08:18:04;11.00;99.90
35043;DHT22;21230;51.170;17.024;2022-10-26T08:20:33;11.20;99.90
35043;DHT22;21230;51.170;17.024;2022-10-26T08:23:00;11.20;99.90
35043;DHT22;21230;51.170;17.024;2022-10-26T08:25:31;11.30;99.90
35043;DHT22;21230;51.170;17.024;2022-10-26T08:28:01;11.40;99.90
35043;DHT22;21230;51.170;17.024;2022-10-26T08:30:28;11.60;99.90
35043;DHT22;21230;51.170;17.024;2022-10-26T08:33:15;11.70;99.90
35043;DHT22;21230;51.170;17.024;2022-10-26T08:35:41;11.90;99.90
35043;DHT22;21230;51.170;17.024;2022-10-26T08:38:23;12.00;99.90
35043;DHT22;21230;51.170;17.024;2022-10-26T08:40:53;12.10;99.90
35043;DHT22;21230;51.170;17.024;2022-10-26T08:46:47;12.40;99.90
35043;DHT22;21230;51.170;17.024;2022-10-26T08:49:43;12.50;99.90
35043;DHT22;21230;51.170;17.024;2022-10-26T08:55:37;12.60;99.90
35043;DHT22;21230;51.170;17.024;2022-10-26T09:16:14;13.40;99.90
35043;DHT22;21230;51.170;17.024;2022-10-26T09:21:47;13.60;99.90
35043;DHT22;21230;51.170;17.024;2022-10-26T09:27:40;13.60;99.90
35043;DHT22;21230;51.170;17.024;2022-10-26T09:29:40;13.70;99.90
35043;DHT22;21230;51.170;17.024;2022-10-26T09:32:09;13.90;99.90
35043;DHT22;21230;51.170;17.024;2022-10-26T09:34:48;13.90;99.90
35043;DHT22;21230;51.170;17.024;2022-10-26T09:37:22;14.00;99.90
35043;DHT22;21230;51.170;17.024;2022-10-26T09:51:06;14.60;99.90
35043;DHT22;21230;51.170;17.024;2022-10-26T09:53:39;14.70;99.90
35043;DHT22;21230;51.170;17.024;2022-10-26T09:56:06;14.80;99.90
35043;DHT22;21230;51.170;17.024;2022-10-26T09:58:43;14.90;99.90
35043;DHT22;21230;51.170;17.024;2022-10-26T10:01:32;15.00;99.90
35043;DHT22;21230;51.170;17.024;2022-10-26T10:06:42;15.20;99.90
35043;DHT22;21230;51.170;17.024;2022-10-26T10:09:16;15.20;99.90
35043;DHT22;21230;51.170;17.024;2022-10-26T10:11:47;15.30;99.90
35043;DHT22;21230;51.170;17.024;2022-10-26T10:14:27;15.40;99.90
35043;DHT22;21230;51.170;17.024;2022-10-26T10:16:55;15.30;99.90
35043;DHT22;21230;51.170;17.024;2022-10-26T10:19:29;15.50;99.90
35043;DHT22;21230;51.170;17.024;2022-10-26T10:21:56;15.60;99.90
35043;DHT22;21230;51.170;17.024;2022-10-26T10:24:27;15.60;99.90
35043;DHT22;21230;51.170;17.024;2022-10-26T10:26:57;15.70;99.90
35043;DHT22;21230;51.170;17.024;2022-10-26T10:29:24;15.80;99.90
35043;DHT22;21230;51.170;17.024;2022-10-26T10:31:57;15.80;99.90
35043;DHT22;21230;51.170;17.024;2022-10-26T10:34:24;15.80;99.90
35043;DHT22;21230;51.170;17.024;2022-10-26T10:36:50;15.80;99.90
35043;DHT22;21230;51.170;17.024;2022-10-26T10:39:35;16.00;99.90
35043;DHT22;21230;51.170;17.024;2022-10-26T10:42:44;16.20;99.90
35043;DHT22;21230;51.170;17.024;2022-10-26T10:44:54;16.30;99.90
35043;DHT22;21230;51.170;17.024;2022-10-26T10:47:24;16.40;99.90
35043;DHT22;21230;51.170;17.024;2022-10-26T10:49:53;16.40;99.90
35043;DHT22;21230;51.170;17.024;2022-10-26T10:52:23;16.50;99.90
35043;DHT22;21230;51.170;17.024;2022-10-26T10:54:50;16.50;99.90
35043;DHT22;21230;51.170;17.024;2022-10-26T10:57:24;16.60;99.90
35043;DHT22;21230;51.170;17.024;2022-10-26T11:00:00;16.80;99.90
35043;DHT22;21230;51.170;17.024;2022-10-26T11:05:23;16.90;99.90
35043;DHT22;21230;51.170;17.024;2022-10-26T11:07:55;16.90;99.90
35043;DHT22;21230;51.170;17.024;2022-10-26T11:10:24;17.10;99.90
35043;DHT22;21230;51.170;17.024;2022-10-26T11:12:55;17.20;99.90
35043;DHT22;21230;51.170;17.024;2022-10-26T11:15:23;17.20;99.90
35043;DHT22;21230;51.170;17.024;2022-10-26T11:18:05;17.10;99.90
35043;DHT22;21230;51.170;17.024;2022-10-26T11:23:36;17.10;99.90
35043;DHT22;21230;51.170;17.024;2022-10-26T11:28:42;17.10;99.90
35043;DHT22;21230;51.170;17.024;2022-10-26T11:34:28;17.40;99.90
35043;DHT22;21230;51.170;17.024;2022-10-26T11:42:17;17.20;99.90
35043;DHT22;21230;51.170;17.024;2022-10-26T11:44:56;17.40;99.90
35043;DHT22;21230;51.170;17.024;2022-10-26T11:47:29;17.50;99.90
35043;DHT22;21230;51.170;17.024;2022-10-26T11:50:14;17.60;99.90
35043;DHT22;21230;51.170;17.024;2022-10-26T11:52:48;17.70;99.90
35043;DHT22;21230;51.170;17.024;2022-10-26T11:55:17;17.70;99.90
35043;DHT22;21230;51.170;17.024;2022-10-26T11:57:49;17.60;99.90
35043;DHT22;21230;51.170;17.024;2022-10-26T12:00:18;17.60;99.90
35043;DHT22;21230;51.170;17.024;2022-10-26T12:05:35;17.60;99.90
35043;DHT22;21230;51.170;17.024;2022-10-26T12:08:11;17.70;99.90
35043;DHT22;21230;51.170;17.024;2022-10-26T12:10:47;17.70;99.90
35043;DHT22;21230;51.170;17.024;2022-10-26T12:16:08;17.70;99.90
35043;DHT22;21230;51.170;17.024;2022-10-26T12:18:44;17.70;99.60
35043;DHT22;21230;51.170;17.024;2022-10-26T12:21:11;17.80;98.90
35043;DHT22;21230;51.170;17.024;2022-10-26T12:23:57;17.80;99.90
35043;DHT22;21230;51.170;17.024;2022-10-26T12:33:58;17.70;98.80
35043;DHT22;21230;51.170;17.024;2022-10-26T12:41:58;17.80;99.70
35043;DHT22;21230;51.170;17.024;2022-10-26T12:47:04;17.90;96.80
35043;DHT22;21230;51.170;17.024;2022-10-26T12:52:24;17.90;95.50
35043;DHT22;21230;51.170;17.024;2022-10-26T12:55:26;17.80;96.90
35043;DHT22;21230;51.170;17.024;2022-10-26T12:57:52;17.70;98.00
35043;DHT22;21230;51.170;17.024;2022-10-26T13:00:24;17.80;98.50
35043;DHT22;21230;51.170;17.024;2022-10-26T13:08:06;17.90;97.40
35043;DHT22;21230;51.170;17.024;2022-10-26T13:10:39;18.00;94.10
35043;DHT22;21230;51.170;17.024;2022-10-26T13:13:21;18.10;95.90
35043;DHT22;21230;51.170;17.024;2022-10-26T13:15:55;18.10;91.70
35043;DHT22;21230;51.170;17.024;2022-10-26T13:18:22;18.00;90.80
35043;DHT22;21230;51.170;17.024;2022-10-26T13:23:38;18.00;84.20
35043;DHT22;21230;51.170;17.024;2022-10-26T13:26:12;17.90;87.90
35043;DHT22;21230;51.170;17.024;2022-10-26T13:31:10;17.80;87.30
35043;DHT22;21230;51.170;17.024;2022-10-26T13:33:40;17.70;90.00
35043;DHT22;21230;51.170;17.024;2022-10-26T13:36:50;17.70;92.10
35043;DHT22;21230;51.170;17.024;2022-10-26T13:39:15;17.70;92.10
35043;DHT22;21230;51.170;17.024;2022-10-26T13:41:43;17.80;91.60
35043;DHT22;21230;51.170;17.024;2022-10-26T13:44:25;17.90;87.60
35043;DHT22;21230;51.170;17.024;2022-10-26T13:47:02;17.80;89.30
35043;DHT22;21230;51.170;17.024;2022-10-26T13:49:35;17.80;90.40
35043;DHT22;21230;51.170;17.024;2022-10-26T13:52:15;17.80;90.00
35043;DHT22;21230;51.170;17.024;2022-10-26T13:57:37;17.80;92.00
35043;DHT22;21230;51.170;17.024;2022-10-26T14:00:18;17.80;93.00
35043;DHT22;21230;51.170;17.024;2022-10-26T14:02:45;17.70;93.70
35043;DHT22;21230;51.170;17.024;2022-10-26T14:05:16;17.70;93.80
35043;DHT22;21230;51.170;17.024;2022-10-26T14:07:55;17.70;92.10
35043;DHT22;21230;51.170;17.024;2022-10-26T14:10:33;17.80;91.70
35043;DHT22;21230;51.170;17.024;2022-10-26T14:13:08;17.80;93.00
35043;DHT22;21230;51.170;17.024;2022-10-26T14:15:45;17.80;93.40
35043;DHT22;21230;51.170;17.024;2022-10-26T14:18:23;17.70;91.90
35043;DHT22;21230;51.170;17.024;2022-10-26T14:20:59;17.80;92.70
35043;DHT22;21230;51.170;17.024;2022-10-26T14:23:29;17.80;90.50
35043;DHT22;21230;51.170;17.024;2022-10-26T14:25:59;17.70;90.10
35043;DHT22;21230;51.170;17.024;2022-10-26T14:28:42;17.70;91.60
35043;DHT22;21230;51.170;17.024;2022-10-26T14:31:32;17.60;92.10
35043;DHT22;21230;51.170;17.024;2022-10-26T14:33:58;17.60;92.10
35043;DHT22;21230;51.170;17.024;2022-10-26T14:36:38;17.50;92.40
35043;DHT22;21230;51.170;17.024;2022-10-26T14:39:15;17.50;91.30
35043;DHT22;21230;51.170;17.024;2022-10-26T14:41:51;17.40;91.80
35043;DHT22;21230;51.170;17.024;2022-10-26T14:44:23;17.30;93.10
35043;DHT22;21230;51.170;17.024;2022-10-26T14:50:00;17.40;94.90
35043;DHT22;21230;51.170;17.024;2022-10-26T14:55:58;17.20;94.90
35043;DHT22;21230;51.170;17.024;2022-10-26T14:58:55;17.20;96.50
35043;DHT22;21230;51.170;17.024;2022-10-26T15:01:50;17.10;96.90
35043;DHT22;21230;51.170;17.024;2022-10-26T15:04:36;17.10;97.90
35043;DHT22;21230;51.170;17.024;2022-10-26T15:09:51;17.00;98.20
35043;DHT22;21230;51.170;17.024;2022-10-26T15:12:34;16.90;99.50
35043;DHT22;21230;51.170;17.024;2022-10-26T15:17:47;16.70;99.90
35043;DHT22;21230;51.170;17.024;2022-10-26T15:20:25;16.60;99.90
35043;DHT22;21230;51.170;17.024;2022-10-26T15:22:58;16.50;99.90
35043;DHT22;21230;51.170;17.024;2022-10-26T15:25:31;16.40;99.90
35043;DHT22;21230;51.170;17.024;2022-10-26T15:30:56;16.40;99.90
35043;DHT22;21230;51.170;17.024;2022-10-26T16:04:46;15.10;99.90
35043;DHT22;21230;51.170;17.024;2022-10-26T16:21:40;14.50;99.90
35043;DHT22;21230;51.170;17.024;2022-10-26T16:30:00;14.00;99.90
35043;DHT22;21230;51.170;17.024;2022-10-26T16:32:27;14.00;99.90
35043;DHT22;21230;51.170;17.024;2022-10-26T16:34:53;13.90;99.90
35043;DHT22;21230;51.170;17.024;2022-10-26T16:37:20;13.80;99.90
35043;DHT22;21230;51.170;17.024;2022-10-26T16:39:46;13.70;99.90
35043;DHT22;21230;51.170;17.024;2022-10-26T16:42:12;13.70;99.90
35043;DHT22;21230;51.170;17.024;2022-10-26T16:44:38;13.70;99.90
35043;DHT22;21230;51.170;17.024;2022-10-26T16:47:04;13.70;99.90
35043;DHT22;21230;51.170;17.024;2022-10-26T16:49:30;13.60;99.90
35043;DHT22;21230;51.170;17.024;2022-10-26T16:51:56;13.50;99.90
35043;DHT22;21230;51.170;17.024;2022-10-26T16:54:22;13.50;99.90
35043;DHT22;21230;51.170;17.024;2022-10-26T16:56:50;13.40;99.90
35043;DHT22;21230;51.170;17.024;2022-10-26T16:59:16;13.20;99.90
35043;DHT22;21230;51.170;17.024;2022-10-26T17:01:42;13.10;99.90
35043;DHT22;21230;51.170;17.024;2022-10-26T17:04:09;13.00;99.90
35043;DHT22;21230;51.170;17.024;2022-10-26T17:06:35;13.00;99.90
35043;DHT22;21230;51.170;17.024;2022-10-26T17:09:04;12.80;99.90
35043;DHT22;21230;51.170;17.024;2022-10-26T17:11:51;12.80;99.90
35043;DHT22;21230;51.170;17.024;2022-10-26T17:14:18;12.70;99.90
35043;DHT22;21230;51.170;17.024;2022-10-26T17:16:48;12.70;99.90
35043;DHT22;21230;51.170;17.024;2022-10-26T17:19:15;12.70;99.90
35043;DHT22;21230;51.170;17.024;2022-10-26T17:21:41;12.60;99.90
35043;DHT22;21230;51.170;17.024;2022-10-26T17:24:09;12.50;99.90
35043;DHT22;21230;51.170;17.024;2022-10-26T17:26:36;12.30;99.90
35043;DHT22;21230;51.170;17.024;2022-10-26T17:29:03;12.20;99.90
35043;DHT22;21230;51.170;17.024;2022-10-26T17:31:29;12.20;99.90
35043;DHT22;21230;51.170;17.024;2022-10-26T17:33:55;12.10;99.90
35043;DHT22;21230;51.170;17.024;2022-10-26T17:36:22;12.00;99.90
35043;DHT22;21230;51.170;17.024;2022-10-26T17:38:51;12.00;99.90
35043;DHT22;21230;51.170;17.024;2022-10-26T17:41:18;12.00;99.90
35043;DHT22;21230;51.170;17.024;2022-10-26T17:43:45;11.80;99.90
35043;DHT22;21230;51.170;17.024;2022-10-26T17:46:12;11.80;99.90
35043;DHT22;21230;51.170;17.024;2022-10-26T17:48:39;11.70;99.90
35043;DHT22;21230;51.170;17.024;2022-10-26T17:51:07;11.70;99.90
35043;DHT22;21230;51.170;17.024;2022-10-26T17:53:33;11.60;99.90
35043;DHT22;21230;51.170;17.024;2022-10-26T17:56:03;11.60;99.90
35043;DHT22;21230;51.170;17.024;2022-10-26T17:58:30;11.60;99.90
35043;DHT22;21230;51.170;17.024;2022-10-26T18:01:00;11.60;99.90
35043;DHT22;21230;51.170;17.024;2022-10-26T18:03:27;11.60;99.90
35043;DHT22;21230;51.170;17.024;2022-10-26T18:05:55;11.50;99.90
35043;DHT22;21230;51.170;17.024;2022-10-26T18:08:21;11.50;99.90
35043;DHT22;21230;51.170;17.024;2022-10-26T18:10:50;11.50;99.90
35043;DHT22;21230;51.170;17.024;2022-10-26T18:13:38;11.50;99.90
35043;DHT22;21230;51.170;17.024;2022-10-26T18:16:12;11.40;99.90
35043;DHT22;21230;51.170;17.024;2022-10-26T18:18:40;11.40;99.90
35043;DHT22;21230;51.170;17.024;2022-10-26T18:21:16;11.40;99.90
35043;DHT22;21230;51.170;17.024;2022-10-26T18:23:42;11.30;99.90
35043;DHT22;21230;51.170;17.024;2022-10-26T18:26:09;11.20;99.90
35043;DHT22;21230;51.170;17.024;2022-10-26T18:28:37;11.20;99.90
35043;DHT22;21230;51.170;17.024;2022-10-26T18:31:05;11.20;99.90
35043;DHT22;21230;51.170;17.024;2022-10-26T18:33:32;11.20;99.90
35043;DHT22;21230;51.170;17.024;2022-10-26T18:36:19;11.10;99.90
35043;DHT22;21230;51.170;17.024;2022-10-26T18:38:54;11.10;99.90
35043;DHT22;21230;51.170;17.024;2022-10-26T18:41:21;11.10;99.90
35043;DHT22;21230;51.170;17.024;2022-10-26T18:43:48;11.00;99.90
35043;DHT22;21230;51.170;17.024;2022-10-26T18:46:18;10.90;99.90
35043;DHT22;21230;51.170;17.024;2022-10-26T18:48:48;11.00;99.90
35043;DHT22;21230;51.170;17.024;2022-10-26T18:51:15;11.00;99.90
35043;DHT22;21230;51.170;17.024;2022-10-26T18:54:03;11.00;99.90
35043;DHT22;21230;51.170;17.024;2022-10-26T18:56:56;11.00;99.90
35043;DHT22;21230;51.170;17.024;2022-10-26T19:24:14;10.60;99.90
35043;DHT22;21230;51.170;17.024;2022-10-26T19:26:56;10.60;99.90
35043;DHT22;21230;51.170;17.024;2022-10-26T19:29:35;10.60;99.90
35043;DHT22;21230;51.170;17.024;2022-10-26T19:35:30;10.60;99.90
35043;DHT22;21230;51.170;17.024;2022-10-26T19:38:24;10.50;99.90
35043;DHT22;21230;51.170;17.024;2022-10-26T21:55:07;8.90;99.90
35043;DHT22;21230;51.170;17.024;2022-10-26T21:57:48;8.90;99.90
35043;DHT22;21230;51.170;17.024;2022-10-26T22:06:36;8.80;99.90
35043;DHT22;21230;51.170;17.024;2022-10-26T22:09:14;8.70;99.90
35043;DHT22;21230;51.170;17.024;2022-10-26T22:11:48;8.80;99.90
35043;DHT22;21230;51.170;17.024;2022-10-26T22:14:17;8.70;99.90
35043;DHT22;21230;51.170;17.024;2022-10-26T22:17:06;8.70;99.90
35043;DHT22;21230;51.170;17.024;2022-10-26T22:19:49;8.70;99.90
35043;DHT22;21230;51.170;17.024;2022-10-26T22:22:21;8.70;99.90
35043;DHT22;21230;51.170;17.024;2022-10-26T22:24:48;8.60;99.90
35043;DHT22;21230;51.170;17.024;2022-10-26T22:27:37;8.50;99.90
35043;DHT22;21230;51.170;17.024;2022-10-26T22:30:22;8.50;99.90
35043;DHT22;21230;51.170;17.024;2022-10-26T22:32:51;8.50;99.90
35043;DHT22;21230;51.170;17.024;2022-10-26T22:41:26;8.60;99.90
35043;DHT22;21230;51.170;17.024;2022-10-26T22:56:15;8.70;99.90
35043;DHT22;21230;51.170;17.024;2022-10-26T22:58:57;8.70;99.90
35043;DHT22;21230;51.170;17.024;2022-10-26T23:01:34;8.70;99.90
35043;DHT22;21230;51.170;17.024;2022-10-26T23:04:05;8.70;99.90
35043;DHT22;21230;51.170;17.024;2022-10-26T23:06:38;8.70;99.90
35043;DHT22;21230;51.170;17.024;2022-10-26T23:09:16;8.70;99.90
35043;DHT22;21230;51.170;17.024;2022-10-26T23:11:45;8.70;99.90
35043;DHT22;21230;51.170;17.024;2022-10-26T23:14:16;8.70;99.90
35043;DHT22;21230;51.170;17.024;2022-10-26T23:16:59;8.70;99.90
35043;DHT22;21230;51.170;17.024;2022-10-26T23:22:21;8.70;99.90
35043;DHT22;21230;51.170;17.024;2022-10-26T23:27:42;8.70;99.90
35043;DHT22;21230;51.170;17.024;2022-10-26T23:30:29;8.70;99.90
35043;DHT22;21230;51.170;17.024;2022-10-26T23:36:00;8.80;99.90
35043;DHT22;21230;51.170;17.024;2022-10-26T23:38:33;8.80;99.90